Time;durP1;ratioP1;P1;durP2;ratioP2;P2;SDS_P1;SDS_P2;PMS_P1;PMS_P2;Temp;Humidity;BMP_temperature;BMP_pressure;BME280_temperature;BME280_humidity;BME280_pressure;Samples;Min_cycle;Max_cycle;Signal;HPM_P1;HPM_P2
2023/07/15 00:01:48;;;;;;;1.87;1.40;;;;;;;22.20;56.99;96280.97;10530669;28;20324;-34
2023/07/15 00:06:48;;;;;;;1.33;1.10;;;;;;;22.21;56.73;96281.81;10534581;28;20111;-34
2023/07/15 00:11:48;;;;;;;1.60;1.00;;;;;;;22.09;56.95;96288.03;10548077;28;20042;-33
2023/07/15 00:16:50;;;;;;;1.07;0.93;;;;;;;22.04;57.24;96287.28;10556043;28;20036;-34
2023/07/15 00:21:50;;;;;;;1.23;1.13;;;;;;;21.97;57.43;96278.06;10535361;28;20426;-33
2023/07/15 00:26:52;;;;;;;1.87;1.30;;;;;;;21.94;57.29;96278.13;10548367;28;20040;-34
2023/07/15 00:31:53;;;;;;;1.60;1.25;;;;;;;21.93;57.38;96285.81;10522693;28;20316;-34
2023/07/15 00:36:53;;;;;;;3.92;1.42;;;;;;;21.94;57.54;96278.13;10540952;28;20081;-34
2023/07/15 00:41:57;;;;;;;1.53;1.30;;;;;;;22.17;56.75;96280.19;10530580;28;20494;-35
2023/07/15 00:47:21;;;;;;;1.95;1.10;;;;;;;22.24;56.52;96274.94;10517753;28;20032;-34
2023/07/15 00:52:22;;;;;;;1.33;0.95;;;;;;;22.13;56.67;96274.31;10508183;28;20040;-33
2023/07/15 00:57:22;;;;;;;1.75;1.27;;;;;;;22.02;57.02;96271.19;10538422;28;20035;-33
2023/07/15 01:02:23;;;;;;;1.88;1.50;;;;;;;21.96;57.15;96266.19;10543706;28;20043;-34
2023/07/15 01:07:23;;;;;;;1.07;0.97;;;;;;;21.92;57.33;96273.94;10535373;28;20024;-34
2023/07/15 01:12:23;;;;;;;1.70;1.20;;;;;;;21.90;57.44;96271.41;10527471;28;20036;-34
2023/07/15 01:17:24;;;;;;;1.43;1.00;;;;;;;21.88;57.43;96262.97;10527345;28;20450;-33
2023/07/15 01:22:26;;;;;;;1.55;1.23;;;;;;;22.07;56.74;96259.16;10517306;28;20356;-33
2023/07/15 01:27:26;;;;;;;2.78;1.27;;;;;;;22.20;56.25;96260.56;10532948;28;20499;-34
2023/07/15 01:32:27;;;;;;;0.97;0.87;;;;;;;22.17;56.18;96260.66;10520297;28;20031;-34
2023/07/15 01:37:27;;;;;;;1.37;0.87;;;;;;;22.06;56.86;96256.66;10522951;28;20085;-33
2023/07/15 01:42:28;;;;;;;1.85;1.40;;;;;;;21.99;57.00;96255.09;10549161;28;20031;-34
2023/07/15 01:47:28;;;;;;;1.67;1.33;;;;;;;21.96;57.10;96253.44;10514271;28;20044;-34
2023/07/15 01:52:29;;;;;;;1.30;0.97;;;;;;;21.91;57.24;96247.59;10544356;28;20042;-34
2023/07/15 01:57:30;;;;;;;0.90;0.80;;;;;;;21.90;57.05;96245.91;10503936;28;20046;-33
2023/07/15 02:02:31;;;;;;;1.42;1.30;;;;;;;21.97;57.14;96231.38;10522407;28;20290;-35
2023/07/15 02:07:31;;;;;;;1.40;1.20;;;;;;;22.17;56.38;96230.06;10509647;28;20389;-34
2023/07/15 02:12:34;;;;;;;1.00;0.90;;;;;;;22.22;56.20;96229.97;10510335;28;20050;-34
2023/07/15 02:17:34;;;;;;;1.13;1.02;;;;;;;22.12;56.34;96226.75;10533338;28;20051;-35
2023/07/15 02:22:35;;;;;;;2.23;1.20;;;;;;;22.01;56.59;96222.75;10531447;28;20034;-34
2023/07/15 02:27:35;;;;;;;2.10;1.20;;;;;;;21.98;56.86;96218.56;10524463;28;20032;-34
2023/07/15 02:32:42;;;;;;;1.23;1.10;;;;;;;21.92;57.02;96221.25;10528666;28;20499;-34
2023/07/15 02:37:44;;;;;;;1.23;1.10;;;;;;;21.91;57.10;96219.56;10528129;28;20310;-34
2023/07/15 02:42:44;;;;;;;1.60;1.13;;;;;;;21.91;57.28;96217.00;10516003;28;20557;-34
2023/07/15 02:47:44;;;;;;;1.53;1.00;;;;;;;22.06;56.61;96200.56;10524209;28;20040;-34
2023/07/15 02:52:45;;;;;;;1.45;1.20;;;;;;;22.22;55.95;96207.81;10531769;28;20295;-34
2023/07/15 02:57:47;;;;;;;1.02;0.95;;;;;;;22.17;56.14;96209.66;10510232;28;20032;-34
2023/07/15 03:02:48;;;;;;;1.17;0.98;;;;;;;22.07;56.50;96210.72;10527507;28;20162;-33
2023/07/15 03:07:49;;;;;;;1.65;1.10;;;;;;;22.00;56.81;96200.69;10533991;28;20020;-34
2023/07/15 03:12:49;;;;;;;1.13;1.02;;;;;;;21.92;57.16;96180.47;10503299;28;20099;-34
2023/07/15 03:17:49;;;;;;;2.22;1.08;;;;;;;21.92;56.90;96188.13;10532496;28;20031;-34
2023/07/15 03:22:51;;;;;;;1.33;1.10;;;;;;;21.91;57.11;96180.50;10514178;28;20097;-33
2023/07/15 03:27:51;;;;;;;1.17;0.85;;;;;;;21.92;56.84;96177.94;10529414;28;20397;-34
2023/07/15 03:32:56;;;;;;;2.13;1.50;;;;;;;22.16;56.26;96169.72;10527745;28;20051;-33
2023/07/15 03:37:56;;;;;;;2.08;1.15;;;;;;;22.23;55.97;96172.97;10540221;28;20293;-34
2023/07/15 03:42:57;;;;;;;1.53;1.00;;;;;;;22.13;56.22;96167.25;10527616;28;20059;-34
2023/07/15 03:47:57;;;;;;;2.00;1.20;;;;;;;22.04;56.64;96177.66;10520575;28;20162;-33
2023/07/15 03:52:57;;;;;;;2.10;1.33;;;;;;;22.02;56.54;96184.50;10529655;28;20037;-34
2023/07/15 03:57:58;;;;;;;1.60;1.10;;;;;;;21.99;56.75;96182.00;10526332;28;20119;-34
2023/07/15 04:03:00;;;;;;;1.58;1.20;;;;;;;21.95;56.74;96177.84;10536454;28;20101;-33
2023/07/15 04:08:00;;;;;;;1.35;1.20;;;;;;;21.92;56.96;96187.28;10529168;28;20067;-33
2023/07/15 04:13:00;;;;;;;1.33;1.03;;;;;;;22.07;56.40;96177.56;10523575;28;20111;-34
2023/07/15 04:18:01;;;;;;;1.80;1.40;;;;;;;22.21;55.68;96170.44;10530912;28;20035;-34
2023/07/15 04:23:01;;;;;;;1.10;1.00;;;;;;;22.20;55.80;96166.22;10520408;28;20036;-34
2023/07/15 04:28:02;;;;;;;1.90;1.37;;;;;;;22.10;56.25;96174.97;10520673;28;20653;-35
2023/07/15 04:33:02;;;;;;;2.70;1.70;;;;;;;22.03;56.47;96164.94;10535221;28;20051;-33
2023/07/15 04:38:03;;;;;;;1.88;1.25;;;;;;;22.01;56.72;96171.78;10533570;28;20364;-34
2023/07/15 04:43:04;;;;;;;2.25;1.52;;;;;;;21.94;56.86;96163.44;10549346;28;20028;-33
2023/07/15 04:48:04;;;;;;;4.07;1.30;;;;;;;21.91;56.99;96170.31;10527563;28;20405;-33
2023/07/15 04:53:05;;;;;;;1.70;1.05;;;;;;;21.87;56.84;96169.53;10535940;28;20055;-35
2023/07/15 04:58:05;;;;;;;1.20;1.10;;;;;;;22.14;55.94;96163.81;10527486;28;20037;-33
2023/07/15 05:03:06;;;;;;;1.48;1.20;;;;;;;22.22;55.71;96156.81;10534411;28;20089;-33
2023/07/15 05:08:10;;;;;;;2.55;1.10;;;;;;;22.13;55.93;96159.59;10512953;28;20383;-34
2023/07/15 05:13:10;;;;;;;2.25;1.33;;;;;;;22.04;57.01;96156.41;10538191;28;20472;-34
2023/07/15 05:18:13;;;;;;;2.00;1.57;;;;;;;21.98;56.63;96152.28;10537400;28;20023;-34
2023/07/15 05:23:14;;;;;;;1.20;1.10;;;;;;;21.94;56.79;96137.94;10534745;28;20062;-34
2023/07/15 05:28:14;;;;;;;1.20;1.10;;;;;;;21.91;56.71;96130.34;10532849;28;20116;-33
2023/07/15 05:33:15;;;;;;;1.67;1.27;;;;;;;21.93;56.71;96122.69;10536690;28;20036;-34
2023/07/15 05:38:15;;;;;;;2.10;1.17;;;;;;;22.04;56.81;96121.56;10532278;28;20019;-35
2023/07/15 05:43:19;;;;;;;2.00;1.33;;;;;;;22.24;56.46;96119.38;10542166;28;20024;-33
2023/07/15 05:48:19;;;;;;;1.30;1.00;;;;;;;22.21;56.14;96114.34;10542703;28;20290;-34
2023/07/15 05:53:20;;;;;;;1.53;1.03;;;;;;;22.09;56.65;96104.47;10527270;28;20023;-34
2023/07/15 05:58:21;;;;;;;1.08;1.00;;;;;;;22.02;56.76;96096.97;10529961;28;20028;-34
2023/07/15 06:03:22;;;;;;;1.80;1.23;;;;;;;22.03;56.79;96104.59;10536229;28;20032;-34
2023/07/15 06:08:23;;;;;;;1.43;1.33;;;;;;;21.97;56.68;96092.00;10524157;28;20040;-34
2023/07/15 06:13:23;;;;;;;1.30;1.20;;;;;;;21.99;56.84;96095.31;10543482;28;20329;-34
2023/07/15 06:18:23;;;;;;;1.95;1.30;;;;;;;21.99;56.68;96097.88;10545956;28;20044;-34
2023/07/15 06:23:24;;;;;;;2.40;1.53;;;;;;;22.19;56.50;96095.72;10535300;28;20051;-34
2023/07/15 06:28:24;;;;;;;1.30;1.20;;;;;;;22.28;55.91;96092.94;10519631;28;20057;-34
2023/07/15 06:33:24;;;;;;;1.40;1.30;;;;;;;22.17;56.09;96105.13;10531061;28;20335;-34
2023/07/15 06:38:27;;;;;;;4.07;1.40;;;;;;;22.10;56.31;96111.22;10526211;28;20033;-32
2023/07/15 06:43:28;;;;;;;3.30;1.55;;;;;;;22.07;56.23;96111.28;10533102;28;20028;-35
2023/07/15 06:48:28;;;;;;;2.83;1.92;;;;;;;22.05;56.41;96107.94;10530956;28;20032;-33
2023/07/15 06:53:29;;;;;;;2.17;1.80;;;;;;;22.07;55.63;96103.63;10526474;28;20048;-33
2023/07/15 06:58:29;;;;;;;1.50;1.30;;;;;;;22.05;56.38;96104.56;10529252;28;20401;-34
2023/07/15 07:03:30;;;;;;;2.33;1.80;;;;;;;22.11;55.85;96117.16;10533211;28;20024;-33
2023/07/15 07:08:31;;;;;;;1.80;1.45;;;;;;;22.31;55.47;96112.44;10528981;28;20055;-34
2023/07/15 07:13:31;;;;;;;2.92;1.92;;;;;;;22.27;55.58;96119.31;10550013;28;20035;-35
2023/07/15 07:18:32;;;;;;;2.67;1.50;;;;;;;22.15;56.10;96109.38;10548620;28;20024;-35
2023/07/15 07:23:32;;;;;;;1.53;1.30;;;;;;;22.06;56.50;96096.03;10550703;28;20565;-36
2023/07/15 07:28:43;;;;;;;3.80;2.00;;;;;;;22.00;56.80;96086.84;10533299;28;20300;-35
2023/07/15 07:33:44;;;;;;;2.17;1.40;;;;;;;21.97;56.76;96084.34;10532979;28;20059;-34
2023/07/15 07:38:45;;;;;;;3.67;1.73;;;;;;;22.02;56.86;96095.28;10542959;28;20031;-34
2023/07/15 07:43:45;;;;;;;6.30;1.50;;;;;;;22.12;56.70;96103.53;10525285;28;20517;-37
2023/07/15 07:48:46;;;;;;;4.57;1.80;;;;;;;22.27;56.59;96101.47;10535144;28;20028;-34
2023/07/15 07:53:46;;;;;;;5.93;1.73;;;;;;;22.29;56.12;96097.16;10530693;28;20052;-33
2023/07/15 07:58:46;;;;;;;2.97;1.57;;;;;;;22.16;56.64;96095.75;10532239;28;20032;-34
2023/07/15 08:03:47;;;;;;;3.87;1.33;;;;;;;22.12;56.86;96114.56;10527028;28;20032;-33
2023/07/15 08:08:47;;;;;;;3.85;1.80;;;;;;;22.12;56.93;96106.06;10524708;28;20238;-34
2023/07/15 08:13:48;;;;;;;1.33;1.20;;;;;;;22.13;57.20;96100.94;10531280;28;20043;-34
2023/07/15 08:18:48;;;;;;;5.37;1.40;;;;;;;22.11;57.00;96089.94;10521220;28;20388;-34
2023/07/15 08:23:49;;;;;;;7.73;2.57;;;;;;;22.13;57.14;96083.09;10522702;28;20037;-33
2023/07/15 08:28:50;;;;;;;2.58;2.15;;;;;;;22.29;56.89;96055.50;10530681;28;20020;-34
2023/07/15 08:33:51;;;;;;;4.60;1.90;;;;;;;22.37;56.91;96069.75;10527518;28;20382;-35
2023/07/15 08:38:53;;;;;;;3.63;1.73;;;;;;;22.24;57.12;96070.91;10538530;28;20016;-34
2023/07/15 08:43:54;;;;;;;9.80;2.92;;;;;;;22.23;57.45;96063.31;10517484;28;20639;-33
2023/07/15 08:48:58;;;;;;;5.18;1.75;;;;;;;22.18;57.16;96066.00;10508888;28;20044;-33
2023/07/15 08:54:03;;;;;;;4.63;1.60;;;;;;;22.16;57.31;96065.16;10523064;28;20035;-34
2023/07/15 08:59:06;;;;;;;4.32;2.03;;;;;;;22.11;57.54;96056.81;10518694;28;20463;-34
2023/07/15 09:04:06;;;;;;;10.20;2.15;;;;;;;22.14;57.81;96061.81;10522003;28;20062;-33
2023/07/15 09:09:07;;;;;;;4.90;2.40;;;;;;;22.30;57.43;96063.13;10522080;28;20040;-33
2023/07/15 09:14:25;;;;;;;5.00;2.40;;;;;;;22.42;57.27;96084.97;10530964;28;20472;-33
2023/07/15 09:19:28;;;;;;;3.72;1.95;;;;;;;22.30;57.18;96100.56;10531686;28;20111;-35
2023/07/15 09:24:30;;;;;;;4.32;1.55;;;;;;;22.20;57.46;96119.47;10538026;28;20062;-34
2023/07/15 09:29:32;;;;;;;4.47;1.75;;;;;;;22.17;57.64;96139.97;10533299;28;20038;-34
2023/07/15 09:34:32;;;;;;;2.17;1.60;;;;;;;22.17;57.69;96157.81;10530645;28;20446;-34
2023/07/15 09:39:32;;;;;;;2.67;1.80;;;;;;;22.12;57.76;96165.56;10537138;28;20020;-34
2023/07/15 09:44:35;;;;;;;5.60;1.80;;;;;;;22.12;57.76;96168.13;10542809;28;20024;-33
2023/07/15 09:49:36;;;;;;;6.75;2.20;;;;;;;22.23;58.24;96140.66;10542093;28;20294;-34
2023/07/15 09:54:40;;;;;;;3.53;2.03;;;;;;;22.42;57.81;96154.69;10539268;28;20039;-34
2023/07/15 09:59:46;;;;;;;6.07;1.80;;;;;;;22.36;57.45;96159.03;10535629;28;20024;-34
2023/07/15 10:04:49;;;;;;;4.03;1.85;;;;;;;22.21;57.56;96155.16;10538800;28;20043;-34
2023/07/15 10:09:50;;;;;;;4.05;2.13;;;;;;;22.18;58.02;96165.44;10526592;28;20086;-33
2023/07/15 10:14:50;;;;;;;2.70;1.60;;;;;;;22.15;57.93;96162.94;10533231;28;20093;-34
2023/07/15 10:20:01;;;;;;;3.95;2.30;;;;;;;22.10;57.78;96164.78;10527730;28;20028;-33
2023/07/15 10:25:03;;;;;;;4.65;1.92;;;;;;;22.12;57.83;96150.25;10541683;28;20047;-35
2023/07/15 10:30:26;;;;;;;5.32;2.00;;;;;;;22.20;58.40;96148.38;10520988;28;20024;-33
2023/07/15 10:35:28;;;;;;;4.30;2.08;;;;;;;22.41;57.95;96152.16;10531984;28;20105;-33
2023/07/15 10:40:46;;;;;;;5.32;2.33;;;;;;;22.38;57.47;96153.03;10537270;28;20031;-34
2023/07/15 10:45:51;;;;;;;2.40;1.80;;;;;;;22.25;57.64;96151.66;10534690;28;20040;-34
2023/07/15 10:50:53;;;;;;;2.63;1.90;;;;;;;22.18;57.83;96150.13;10532579;28;20059;-34
2023/07/15 10:56:12;;;;;;;3.67;1.73;;;;;;;22.16;58.00;96135.75;10538229;28;20116;-33
2023/07/15 11:01:13;;;;;;;3.58;1.70;;;;;;;22.14;58.05;96134.94;10521149;28;20031;-33
2023/07/15 11:06:13;;;;;;;3.40;1.73;;;;;;;22.12;58.00;96129.88;10525616;28;20040;-33
2023/07/15 11:11:14;;;;;;;4.07;2.17;;;;;;;22.14;58.58;96122.19;10522148;28;20035;-34
2023/07/15 11:16:14;;;;;;;4.38;2.20;;;;;;;22.35;57.76;96114.88;10549242;28;20032;-34
2023/07/15 11:21:15;;;;;;;2.55;1.70;;;;;;;22.41;57.64;96112.16;10526907;28;20473;-34
2023/07/15 11:26:15;;;;;;;2.65;1.67;;;;;;;22.28;57.70;96085.28;10525421;28;20036;-34
2023/07/15 11:31:19;;;;;;;2.13;1.63;;;;;;;22.19;57.93;96090.59;10533001;28;20040;-34
2023/07/15 11:36:19;;;;;;;3.65;1.90;;;;;;;22.14;58.09;96074.56;10519287;28;20097;-34
2023/07/15 11:41:21;;;;;;;2.33;1.70;;;;;;;22.13;57.99;96060.16;10526103;28;20082;-35
2023/07/15 11:46:21;;;;;;;2.95;1.60;;;;;;;22.13;58.12;96055.06;10522562;28;20710;-33
2023/07/15 11:51:23;;;;;;;2.53;1.65;;;;;;;22.12;58.11;96052.53;10527891;28;20042;-35
2023/07/15 11:56:41;;;;;;;2.28;1.80;;;;;;;22.28;58.27;96033.41;10534349;28;20088;-34
2023/07/15 12:01:41;;;;;;;4.35;1.55;;;;;;;22.43;57.87;96044.13;10528976;28;20035;-33
2023/07/15 12:06:46;;;;;;;2.90;1.77;;;;;;;22.35;57.65;96040.91;10521450;28;20032;-35
2023/07/15 12:11:49;;;;;;;2.30;1.73;;;;;;;22.22;57.86;96024.22;10536253;28;20104;-33
2023/07/15 12:16:53;;;;;;;3.20;1.80;;;;;;;22.16;57.59;96021.81;10529573;28;20043;-35
2023/07/15 12:21:53;;;;;;;5.65;2.00;;;;;;;22.15;58.12;96019.31;10537714;28;20035;-34
2023/07/15 12:26:53;;;;;;;2.47;1.63;;;;;;;22.14;58.20;96023.56;10518402;28;20039;-33
2023/07/15 12:31:54;;;;;;;1.90;1.30;;;;;;;22.11;58.32;96013.47;10524405;28;20301;-34
2023/07/15 12:36:56;;;;;;;2.47;1.80;;;;;;;22.21;58.39;96020.00;10535519;28;20209;-33
2023/07/15 12:41:56;;;;;;;2.13;1.52;;;;;;;22.41;58.05;96020.34;10530644;28;20043;-34
2023/07/15 12:46:57;;;;;;;3.70;1.63;;;;;;;22.42;57.81;96016.94;10522214;28;20058;-34
2023/07/15 12:51:57;;;;;;;2.23;1.50;;;;;;;22.29;57.86;96030.84;10534841;28;20480;-33
2023/07/15 12:56:59;;;;;;;2.40;1.50;;;;;;;22.22;58.06;96041.25;10542278;28;20020;-34
2023/07/15 13:02:00;;;;;;;2.03;1.60;;;;;;;22.18;58.39;96047.28;10531877;28;20039;-33
2023/07/15 13:07:00;;;;;;;1.60;1.27;;;;;;;22.15;58.32;96042.28;10537719;28;20109;-33
2023/07/15 13:12:00;;;;;;;2.00;1.77;;;;;;;22.16;58.44;96056.69;10527166;28;20036;-34
2023/07/15 13:17:01;;;;;;;2.07;1.77;;;;;;;22.14;58.38;96059.28;10536118;28;20033;-33
2023/07/15 13:22:01;;;;;;;2.00;1.80;;;;;;;22.31;58.32;96054.59;10524368;28;20476;-34
2023/07/15 13:27:02;;;;;;;2.37;1.60;;;;;;;22.45;58.02;96056.81;10532458;28;20028;-33
2023/07/15 13:32:02;;;;;;;2.10;1.73;;;;;;;22.33;58.80;96067.31;10518941;28;20375;-35
2023/07/15 13:37:03;;;;;;;12.32;2.78;;;;;;;22.25;59.34;96070.06;10527689;28;20600;-34
2023/07/15 13:42:19;;;;;;;7.53;2.10;;;;;;;22.22;58.42;96075.22;10533500;28;20451;-34
2023/07/15 13:47:19;;;;;;;7.72;1.90;;;;;;;22.18;59.22;96083.84;10532916;28;20029;-33
2023/07/15 13:52:22;;;;;;;6.20;2.00;;;;;;;22.36;59.15;96085.06;10535943;28;20119;-33
2023/07/15 13:57:22;;;;;;;5.97;1.85;;;;;;;22.51;58.58;96100.03;10534891;28;20494;-33
2023/07/15 14:02:23;;;;;;;10.37;2.10;;;;;;;22.42;59.05;96096.03;10528886;28;20024;-34
2023/07/15 14:07:23;;;;;;;2.83;1.60;;;;;;;22.25;59.40;96075.16;10531302;28;20040;-33
2023/07/15 14:12:25;;;;;;;8.13;2.10;;;;;;;22.25;59.26;96080.25;10526915;28;20290;-33
2023/07/15 14:17:26;;;;;;;5.22;2.10;;;;;;;22.22;58.21;96064.19;10529293;28;20428;-34
2023/07/15 14:22:26;;;;;;;3.03;1.73;;;;;;;22.20;58.89;96060.84;10529254;28;20160;-34
2023/07/15 14:27:27;;;;;;;8.77;2.47;;;;;;;22.25;59.44;96048.81;10525075;28;20036;-33
2023/07/15 14:32:28;;;;;;;4.10;2.10;;;;;;;22.48;59.90;96054.19;10532216;28;20062;-33
2023/07/15 14:37:28;;;;;;;6.03;1.80;;;;;;;22.56;58.86;96047.19;10524721;28;20110;-34
2023/07/15 14:42:28;;;;;;;6.60;2.17;;;;;;;22.40;59.06;96054.34;10531332;28;20439;-34
2023/07/15 14:47:33;;;;;;;5.80;2.13;;;;;;;22.33;60.25;96070.69;10530377;28;20418;-34
2023/07/15 14:52:33;;;;;;;4.13;2.17;;;;;;;22.37;60.92;96059.53;10535432;28;20036;-33
2023/07/15 14:57:33;;;;;;;6.37;2.13;;;;;;;22.54;60.49;96071.88;10532612;28;20427;-34
2023/07/15 15:02:34;;;;;;;5.90;2.20;;;;;;;22.57;59.05;96067.53;10496286;28;20033;-33
2023/07/15 15:07:34;;;;;;;4.23;1.73;;;;;;;22.43;59.28;96064.53;10520897;28;20415;-34
2023/07/15 15:12:34;;;;;;;6.43;2.23;;;;;;;22.36;59.44;96070.63;10518468;28;20126;-33
2023/07/15 15:17:35;;;;;;;4.37;2.27;;;;;;;22.33;59.28;96068.13;10525803;28;20032;-33
2023/07/15 15:22:37;;;;;;;7.50;2.13;;;;;;;22.24;60.09;96063.25;10527637;28;20278;-34
2023/07/15 15:27:37;;;;;;;5.20;1.75;;;;;;;22.51;60.28;96057.50;10523922;28;20302;-34
2023/07/15 15:32:37;;;;;;;4.33;2.37;;;;;;;22.49;60.19;96061.78;10528155;28;20046;-33
2023/07/15 15:37:38;;;;;;;3.75;1.98;;;;;;;22.45;59.77;96062.75;10526875;28;20114;-34
2023/07/15 15:42:38;;;;;;;20.20;2.33;;;;;;;22.36;59.41;96068.06;10524161;28;20417;-34
2023/07/15 15:47:39;;;;;;;11.88;2.70;;;;;;;22.33;59.19;96057.09;10522517;28;20448;-33
2023/07/15 15:52:45;;;;;;;8.77;2.13;;;;;;;22.32;60.59;96040.13;10517651;28;20763;-34
2023/07/15 15:57:45;;;;;;;4.95;1.70;;;;;;;22.51;59.51;96039.66;10523745;28;20040;-34
2023/07/15 16:02:46;;;;;;;6.63;2.40;;;;;;;22.51;59.84;96031.16;10526328;28;20401;-34
2023/07/15 16:07:46;;;;;;;8.40;2.47;;;;;;;22.46;59.82;96021.06;10529211;28;20380;-35
2023/07/15 16:12:47;;;;;;;7.82;2.83;;;;;;;22.39;60.43;96024.63;10526784;28;20807;-34
2023/07/15 16:17:47;;;;;;;2.87;2.10;;;;;;;22.20;59.51;96018.34;10522799;28;20031;-33
2023/07/15 16:22:47;;;;;;;3.53;1.60;;;;;;;22.16;59.69;96023.56;10520412;28;20031;-34
2023/07/15 16:27:48;;;;;;;3.30;1.93;;;;;;;22.40;59.65;96023.75;10541106;28;20036;-34
2023/07/15 16:32:48;;;;;;;2.70;1.92;;;;;;;22.55;59.44;96020.81;10533209;28;20054;-34
2023/07/15 16:37:49;;;;;;;6.20;1.40;;;;;;;22.49;59.16;96015.06;10544062;28;20083;-34
2023/07/15 16:42:49;;;;;;;8.30;2.40;;;;;;;22.39;59.72;96016.16;10530422;28;20039;-34
2023/07/15 16:47:50;;;;;;;4.20;2.65;;;;;;;22.41;59.94;96005.03;10540260;28;20046;-34
2023/07/15 16:52:50;;;;;;;10.10;2.00;;;;;;;22.33;60.55;95996.72;10534644;28;20040;-34
2023/07/15 16:57:50;;;;;;;12.07;2.67;;;;;;;22.41;61.73;95994.00;10542806;28;20165;-34
2023/07/15 17:02:51;;;;;;;8.80;2.37;;;;;;;22.43;60.65;95985.44;10534009;28;20039;-34
2023/07/15 17:07:51;;;;;;;10.90;2.60;;;;;;;22.59;62.71;95979.06;10525928;28;20035;-34
2023/07/15 17:12:51;;;;;;;5.80;1.63;;;;;;;22.62;59.68;95989.16;10537607;28;20040;-33
2023/07/15 17:17:52;;;;;;;11.97;3.07;;;;;;;22.48;61.46;96001.44;10543633;28;20020;-34
2023/07/15 17:22:52;;;;;;;6.47;2.30;;;;;;;22.43;59.97;96003.31;10528944;28;20292;-34
2023/07/15 17:27:53;;;;;;;5.00;2.30;;;;;;;22.31;59.41;95993.38;10538040;28;20289;-33
2023/07/15 17:32:54;;;;;;;8.75;2.40;;;;;;;22.31;61.12;95983.19;10527685;28;20068;-33
2023/07/15 17:37:54;;;;;;;4.90;2.10;;;;;;;22.54;59.97;96001.28;10545240;28;20040;-33
2023/07/15 17:42:54;;;;;;;7.17;2.30;;;;;;;22.57;59.41;96006.31;10538828;28;20027;-33
2023/07/15 17:47:55;;;;;;;3.80;1.73;;;;;;;22.49;59.93;96026.06;10542237;28;20030;-34
2023/07/15 17:52:55;;;;;;;6.23;1.97;;;;;;;22.42;59.44;96041.59;10545497;28;20051;-35
2023/07/15 17:57:55;;;;;;;3.75;1.75;;;;;;;22.39;59.44;96107.97;10529344;28;20040;-34
2023/07/15 18:02:56;;;;;;;6.03;2.90;;;;;;;22.36;59.39;96119.09;10535947;28;20039;-33
2023/07/15 18:07:56;;;;;;;7.17;2.17;;;;;;;22.51;60.22;96126.41;10524050;28;20036;-33
2023/07/15 18:12:56;;;;;;;3.47;2.07;;;;;;;22.64;59.46;96094.56;10542737;28;20695;-33
2023/07/15 18:17:57;;;;;;;2.50;1.80;;;;;;;22.52;59.93;96054.09;10537756;28;20397;-34
2023/07/15 18:22:58;;;;;;;9.75;2.75;;;;;;;22.45;61.02;96060.22;10529102;28;20706;-33
2023/07/15 18:27:58;;;;;;;4.50;2.47;;;;;;;22.40;60.73;96062.00;10534719;28;20047;-34
2023/07/15 18:32:59;;;;;;;2.40;2.03;;;;;;;22.36;59.82;96073.19;10524313;28;20043;-33
2023/07/15 18:37:59;;;;;;;3.27;2.27;;;;;;;22.56;60.27;96073.53;10536570;28;20264;-33
2023/07/15 18:42:59;;;;;;;2.75;1.90;;;;;;;22.66;59.64;96030.75;10538062;28;20024;-34
2023/07/15 18:48:00;;;;;;;3.13;1.67;;;;;;;22.55;59.80;96059.09;10539498;28;20036;-34
2023/07/15 18:53:00;;;;;;;2.10;1.90;;;;;;;22.47;59.97;96192.84;10555211;28;20040;-34
2023/07/15 18:58:01;;;;;;;6.43;3.38;;;;;;;22.51;61.35;96330.50;10534086;28;20285;-34
2023/07/15 19:03:01;;;;;;;8.60;3.60;;;;;;;22.50;62.42;96356.84;10534849;28;20061;-33
2023/07/15 19:08:01;;;;;;;2.80;2.17;;;;;;;22.54;60.77;96123.75;10544825;28;20032;-34
2023/07/15 19:13:02;;;;;;;4.20;2.60;;;;;;;22.66;60.58;96161.69;10542359;28;20024;-34
2023/07/15 19:18:02;;;;;;;5.57;2.67;;;;;;;22.63;60.83;96230.69;10522086;28;20034;-33
2023/07/15 19:23:02;;;;;;;3.30;2.50;;;;;;;22.52;60.83;96252.22;10556447;28;20061;-34
2023/07/15 19:28:03;;;;;;;6.90;2.43;;;;;;;22.41;59.87;96226.97;10531109;28;20485;-33
2023/07/15 19:33:03;;;;;;;2.85;2.28;;;;;;;22.33;59.81;96198.19;10523428;28;20024;-34
2023/07/15 19:38:04;;;;;;;2.83;2.20;;;;;;;22.34;60.49;96171.00;10532955;28;20085;-34
2023/07/15 19:43:05;;;;;;;3.38;2.05;;;;;;;22.54;61.08;96200.28;10531374;28;20119;-34
2023/07/15 19:48:05;;;;;;;3.00;2.60;;;;;;;22.66;59.86;96230.59;10521468;28;20021;-33
2023/07/15 19:53:06;;;;;;;2.72;1.90;;;;;;;22.55;60.25;96224.94;10518714;28;20036;-34
2023/07/15 19:58:06;;;;;;;3.72;2.22;;;;;;;22.45;60.21;96231.13;10520958;28;20028;-33
2023/07/15 20:03:06;;;;;;;3.73;1.67;;;;;;;22.43;60.02;96321.31;10520570;28;20036;-35
2023/07/15 20:08:07;;;;;;;2.83;2.37;;;;;;;22.44;60.52;96423.34;10531918;28;20057;-34
2023/07/15 20:13:08;;;;;;;4.28;2.55;;;;;;;22.36;60.37;96341.00;10523452;28;20055;-35
2023/07/15 20:18:09;;;;;;;2.88;2.05;;;;;;;22.57;60.53;96367.78;10529798;28;20028;-34
2023/07/15 20:23:09;;;;;;;2.03;1.80;;;;;;;22.66;59.93;96342.06;10544401;28;20032;-34
2023/07/15 20:28:09;;;;;;;6.33;2.40;;;;;;;22.58;60.98;96347.31;10543634;28;20437;-33
2023/07/15 20:33:10;;;;;;;3.70;2.67;;;;;;;22.49;60.56;96373.03;10540246;28;20038;-33
2023/07/15 20:38:10;;;;;;;3.77;1.67;;;;;;;22.38;59.97;96336.69;10538579;28;20050;-33
2023/07/15 20:43:11;;;;;;;5.38;2.38;;;;;;;22.36;59.77;96335.03;10536480;28;20032;-34
2023/07/15 20:48:11;;;;;;;3.07;1.93;;;;;;;22.29;60.07;96319.03;10528703;28;20490;-34
2023/07/15 20:53:11;;;;;;;2.50;1.97;;;;;;;22.53;60.51;96335.53;10538951;28;20409;-34
2023/07/15 20:58:12;;;;;;;4.70;2.00;;;;;;;22.64;60.16;96342.09;10518297;28;20086;-34
2023/07/15 21:03:15;;;;;;;4.33;1.70;;;;;;;22.55;60.03;96327.00;10539719;28;20401;-34
2023/07/15 21:08:15;;;;;;;7.95;2.50;;;;;;;22.46;60.12;96327.19;10515182;28;20044;-34
2023/07/15 21:13:16;;;;;;;1.77;1.67;;;;;;;22.40;59.82;96345.13;10528905;28;20032;-33
2023/07/15 21:18:19;;;;;;;2.17;1.77;;;;;;;22.36;59.81;96358.84;10544628;28;20057;-33
2023/07/15 21:23:20;;;;;;;2.10;1.92;;;;;;;22.33;59.24;96381.84;10535226;28;20036;-33
2023/07/15 21:28:33;;;;;;;2.17;1.90;;;;;;;22.50;61.08;96396.84;10531056;28;20063;-33
2023/07/15 21:33:33;;;;;;;1.95;1.73;;;;;;;22.63;60.56;96414.44;10526790;28;20041;-33
2023/07/15 21:38:34;;;;;;;1.97;1.50;;;;;;;22.59;60.23;96417.94;10538425;28;20032;-34
2023/07/15 21:43:34;;;;;;;1.85;1.65;;;;;;;22.49;60.34;96451.31;10537665;28;20803;-35
2023/07/15 21:48:35;;;;;;;6.07;2.30;;;;;;;22.44;59.84;96504.97;10525257;28;20036;-34
2023/07/15 21:53:35;;;;;;;1.80;1.60;;;;;;;22.37;59.69;96482.97;10528653;28;20512;-34
2023/07/15 21:58:36;;;;;;;2.73;1.90;;;;;;;22.34;59.82;96498.34;10530310;28;20497;-34
2023/07/15 22:03:36;;;;;;;3.03;2.03;;;;;;;22.40;60.87;96503.31;10526419;28;20504;-33
2023/07/15 22:08:39;;;;;;;2.70;1.63;;;;;;;22.61;60.31;96502.94;10531049;28;20040;-34
2023/07/15 22:13:39;;;;;;;2.13;1.92;;;;;;;22.63;59.80;96531.81;10527107;28;20280;-34
2023/07/15 22:18:40;;;;;;;2.07;1.50;;;;;;;22.52;60.75;96545.66;10528425;28;20050;-33
2023/07/15 22:23:40;;;;;;;2.00;1.73;;;;;;;22.45;60.34;96552.56;10532644;28;20279;-34
2023/07/15 22:28:40;;;;;;;2.00;1.60;;;;;;;22.42;60.23;96546.69;10529236;28;20020;-34
2023/07/15 22:33:41;;;;;;;2.23;1.80;;;;;;;22.39;60.11;96552.66;10526973;28;20033;-33
2023/07/15 22:38:43;;;;;;;3.03;1.47;;;;;;;22.37;59.75;96554.41;10535189;28;20424;-33
2023/07/15 22:43:44;;;;;;;3.88;2.00;;;;;;;22.58;61.10;96597.41;10534578;28;20303;-33
2023/07/15 22:48:44;;;;;;;2.05;1.45;;;;;;;22.68;60.06;96621.91;10523410;28;20101;-33
2023/07/15 22:53:44;;;;;;;1.77;1.50;;;;;;;22.59;61.74;96627.19;10541400;28;20043;-34
2023/07/15 22:58:45;;;;;;;2.47;1.40;;;;;;;22.50;60.91;96640.06;10534240;28;20032;-34
2023/07/15 23:03:45;;;;;;;1.63;1.40;;;;;;;22.49;62.53;96630.72;10542593;28;20089;-33
2023/07/15 23:08:45;;;;;;;3.10;1.60;;;;;;;22.43;60.58;96645.31;10536628;28;20032;-34
2023/07/15 23:13:46;;;;;;;1.80;1.50;;;;;;;22.42;60.57;96644.50;10523138;28;20047;-34
2023/07/15 23:18:46;;;;;;;1.73;1.60;;;;;;;22.48;61.50;96659.69;10531085;28;20047;-34